sensor_id;sensor_type;location;lat;lon;timestamp;pressure;altitude;pressure_sealevel;temperature;humidity
12178;BME280;6152;48.728;9.256;2022-08-04T00:02:15;96932.97;;;22.05;76.26
12178;BME280;6152;48.728;9.256;2022-08-04T00:05:22;96933.97;;;22.04;76.32
12178;BME280;6152;48.728;9.256;2022-08-04T00:10:39;96926.34;;;22.01;76.96
12178;BME280;6152;48.728;9.256;2022-08-04T00:13:09;96921.38;;;21.98;77.04
12178;BME280;6152;48.728;9.256;2022-08-04T00:15:36;96920.75;;;21.96;76.10
12178;BME280;6152;48.728;9.256;2022-08-04T00:18:07;96925.03;;;21.97;75.73
12178;BME280;6152;48.728;9.256;2022-08-04T00:20:36;96925.22;;;21.95;76.32
12178;BME280;6152;48.728;9.256;2022-08-04T00:23:04;96926.03;;;21.96;75.90
12178;BME280;6152;48.728;9.256;2022-08-04T00:25:31;96920.91;;;21.94;75.79
12178;BME280;6152;48.728;9.256;2022-08-04T00:27:58;96921.06;;;21.93;76.30
12178;BME280;6152;48.728;9.256;2022-08-04T00:30:25;96923.06;;;21.91;77.91
12178;BME280;6152;48.728;9.256;2022-08-04T00:32:52;96929.50;;;21.88;77.02
12178;BME280;6152;48.728;9.256;2022-08-04T00:35:19;96928.00;;;21.86;77.06
12178;BME280;6152;48.728;9.256;2022-08-04T00:37:46;96930.00;;;21.84;77.77
12178;BME280;6152;48.728;9.256;2022-08-04T00:43:30;96926.19;;;21.78;78.24
12178;BME280;6152;48.728;9.256;2022-08-04T01:11:24;96933.31;;;21.37;83.10
12178;BME280;6152;48.728;9.256;2022-08-04T01:16:48;96934.28;;;21.28;82.63
12178;BME280;6152;48.728;9.256;2022-08-04T01:22:27;96928.50;;;21.17;83.35
12178;BME280;6152;48.728;9.256;2022-08-04T01:30:20;96925.63;;;21.10;85.37
12178;BME280;6152;48.728;9.256;2022-08-04T01:33:03;96925.59;;;21.02;86.53
12178;BME280;6152;48.728;9.256;2022-08-04T01:36:09;96922.47;;;20.98;86.04
12178;BME280;6152;48.728;9.256;2022-08-04T01:38:32;96929.19;;;20.93;86.86
12178;BME280;6152;48.728;9.256;2022-08-04T01:41:09;96918.94;;;20.90;87.67
12178;BME280;6152;48.728;9.256;2022-08-04T01:43:41;96916.81;;;20.85;87.93
12178;BME280;6152;48.728;9.256;2022-08-04T01:46:14;96919.28;;;20.79;87.90
12178;BME280;6152;48.728;9.256;2022-08-04T01:48:45;96916.91;;;20.76;88.00
12178;BME280;6152;48.728;9.256;2022-08-04T01:51:12;96918.06;;;20.73;89.13
12178;BME280;6152;48.728;9.256;2022-08-04T01:53:41;96919.38;;;20.69;88.75
12178;BME280;6152;48.728;9.256;2022-08-04T01:56:09;96923.19;;;20.66;88.88
12178;BME280;6152;48.728;9.256;2022-08-04T01:58:37;96922.53;;;20.64;88.58
12178;BME280;6152;48.728;9.256;2022-08-04T02:01:08;96917.56;;;20.61;88.89
12178;BME280;6152;48.728;9.256;2022-08-04T02:03:37;96922.16;;;20.59;89.00
12178;BME280;6152;48.728;9.256;2022-08-04T02:11:16;96916.69;;;20.53;90.15
12178;BME280;6152;48.728;9.256;2022-08-04T02:17:15;96914.81;;;20.45;89.39
12178;BME280;6152;48.728;9.256;2022-08-04T02:22:21;96903.59;;;20.43;90.13
12178;BME280;6152;48.728;9.256;2022-08-04T02:25:02;96905.25;;;20.44;89.55
12178;BME280;6152;48.728;9.256;2022-08-04T02:27:39;96904.56;;;20.42;89.46
12178;BME280;6152;48.728;9.256;2022-08-04T02:30:09;96904.06;;;20.39;88.96
12178;BME280;6152;48.728;9.256;2022-08-04T02:32:36;96894.63;;;20.36;89.30
12178;BME280;6152;48.728;9.256;2022-08-04T02:37:34;96899.75;;;20.30;90.30
12178;BME280;6152;48.728;9.256;2022-08-04T02:40:05;96894.59;;;20.28;90.59
12178;BME280;6152;48.728;9.256;2022-08-04T02:42:32;96891.41;;;20.25;90.48
12178;BME280;6152;48.728;9.256;2022-08-04T02:44:59;96896.69;;;20.25;90.58
12178;BME280;6152;48.728;9.256;2022-08-04T02:47:27;96899.84;;;20.20;91.20
12178;BME280;6152;48.728;9.256;2022-08-04T02:49:56;96897.34;;;20.18;91.21
12178;BME280;6152;48.728;9.256;2022-08-04T02:52:23;96886.91;;;20.17;91.00
12178;BME280;6152;48.728;9.256;2022-08-04T02:54:55;96891.53;;;20.15;90.34
12178;BME280;6152;48.728;9.256;2022-08-04T02:57:29;96892.81;;;20.11;91.56
12178;BME280;6152;48.728;9.256;2022-08-04T03:02:33;96885.22;;;20.08;91.55
12178;BME280;6152;48.728;9.256;2022-08-04T03:05:17;96896.09;;;20.05;91.69
12178;BME280;6152;48.728;9.256;2022-08-04T03:08:17;96891.13;;;20.02;92.63
12178;BME280;6152;48.728;9.256;2022-08-04T03:33:55;96902.09;;;19.89;92.39
12178;BME280;6152;48.728;9.256;2022-08-04T03:51:01;96909.25;;;19.71;94.80
12178;BME280;6152;48.728;9.256;2022-08-04T03:59:45;96910.34;;;19.60;96.73
12178;BME280;6152;48.728;9.256;2022-08-04T04:05:43;96910.47;;;19.59;96.41
12178;BME280;6152;48.728;9.256;2022-08-04T04:19:52;96905.69;;;19.54;98.17
12178;BME280;6152;48.728;9.256;2022-08-04T04:25:18;96903.03;;;19.54;98.67
12178;BME280;6152;48.728;9.256;2022-08-04T04:33:42;96902.41;;;19.60;98.15
12178;BME280;6152;48.728;9.256;2022-08-04T04:36:16;96908.38;;;19.62;98.64
12178;BME280;6152;48.728;9.256;2022-08-04T04:44:27;96906.25;;;19.66;99.02
12178;BME280;6152;48.728;9.256;2022-08-04T04:47:12;96913.06;;;19.69;99.48
12178;BME280;6152;48.728;9.256;2022-08-04T04:49:49;96916.19;;;19.72;99.84
12178;BME280;6152;48.728;9.256;2022-08-04T04:52:27;96915.06;;;19.75;100.00
12178;BME280;6152;48.728;9.256;2022-08-04T04:55:16;96918.22;;;19.78;100.00
12178;BME280;6152;48.728;9.256;2022-08-04T04:57:45;96914.44;;;19.81;100.00
12178;BME280;6152;48.728;9.256;2022-08-04T05:00:12;96918.25;;;19.86;100.00
12178;BME280;6152;48.728;9.256;2022-08-04T05:05:46;96918.19;;;19.96;100.00
12178;BME280;6152;48.728;9.256;2022-08-04T05:08:33;96918.53;;;20.01;100.00
12178;BME280;6152;48.728;9.256;2022-08-04T05:13:56;96928.00;;;20.11;100.00
12178;BME280;6152;48.728;9.256;2022-08-04T05:16:43;96924.91;;;20.16;100.00
12178;BME280;6152;48.728;9.256;2022-08-04T05:24:39;96927.00;;;20.30;100.00
12178;BME280;6152;48.728;9.256;2022-08-04T05:27:30;96930.50;;;20.39;100.00
12178;BME280;6152;48.728;9.256;2022-08-04T05:30:03;96921.28;;;20.43;100.00
12178;BME280;6152;48.728;9.256;2022-08-04T05:32:37;96926.09;;;20.47;100.00
12178;BME280;6152;48.728;9.256;2022-08-04T05:35:20;96923.13;;;20.50;100.00
12178;BME280;6152;48.728;9.256;2022-08-04T05:37:49;96920.69;;;20.57;100.00
12178;BME280;6152;48.728;9.256;2022-08-04T05:40:18;96926.97;;;20.64;100.00
12178;BME280;6152;48.728;9.256;2022-08-04T05:42:45;96927.31;;;20.69;100.00
12178;BME280;6152;48.728;9.256;2022-08-04T05:45:12;96927.50;;;20.76;100.00
12178;BME280;6152;48.728;9.256;2022-08-04T05:47:39;96919.41;;;20.77;100.00
12178;BME280;6152;48.728;9.256;2022-08-04T05:50:06;96923.53;;;20.80;100.00
12178;BME280;6152;48.728;9.256;2022-08-04T05:52:36;96926.56;;;20.85;100.00
12178;BME280;6152;48.728;9.256;2022-08-04T05:55:04;96917.31;;;20.89;100.00
12178;BME280;6152;48.728;9.256;2022-08-04T05:57:32;96936.16;;;20.94;100.00
12178;BME280;6152;48.728;9.256;2022-08-04T06:00:02;96933.03;;;20.98;100.00
12178;BME280;6152;48.728;9.256;2022-08-04T06:02:29;96928.25;;;21.02;98.92
12178;BME280;6152;48.728;9.256;2022-08-04T06:04:57;96924.94;;;21.08;98.75
12178;BME280;6152;48.728;9.256;2022-08-04T06:07:25;96931.63;;;21.12;97.20
12178;BME280;6152;48.728;9.256;2022-08-04T06:09:51;96927.47;;;21.17;97.09
12178;BME280;6152;48.728;9.256;2022-08-04T06:12:21;96931.97;;;21.25;96.94
12178;BME280;6152;48.728;9.256;2022-08-04T06:14:49;96928.00;;;21.29;96.46
12178;BME280;6152;48.728;9.256;2022-08-04T06:17:32;96926.84;;;21.40;95.21
12178;BME280;6152;48.728;9.256;2022-08-04T06:20:02;96926.53;;;21.43;94.57
12178;BME280;6152;48.728;9.256;2022-08-04T06:22:29;96923.38;;;21.47;92.68
12178;BME280;6152;48.728;9.256;2022-08-04T06:25:00;96930.81;;;21.52;93.77
12178;BME280;6152;48.728;9.256;2022-08-04T06:27:28;96939.59;;;21.60;95.56
12178;BME280;6152;48.728;9.256;2022-08-04T06:29:57;96927.50;;;21.66;95.69
12178;BME280;6152;48.728;9.256;2022-08-04T06:32:25;96930.16;;;21.74;95.36
12178;BME280;6152;48.728;9.256;2022-08-04T06:34:58;96935.28;;;21.84;94.89
12178;BME280;6152;48.728;9.256;2022-08-04T06:37:27;96932.97;;;21.97;93.48
12178;BME280;6152;48.728;9.256;2022-08-04T06:39:54;96930.00;;;22.00;93.13
12178;BME280;6152;48.728;9.256;2022-08-04T06:42:23;96938.78;;;22.08;92.97
12178;BME280;6152;48.728;9.256;2022-08-04T06:44:55;96936.44;;;22.13;93.36
12178;BME280;6152;48.728;9.256;2022-08-04T06:47:23;96939.91;;;22.22;92.14
12178;BME280;6152;48.728;9.256;2022-08-04T06:49:52;96937.25;;;22.30;92.85
12178;BME280;6152;48.728;9.256;2022-08-04T06:52:20;96934.72;;;22.37;92.84
12178;BME280;6152;48.728;9.256;2022-08-04T06:54:48;96938.00;;;22.47;92.14
12178;BME280;6152;48.728;9.256;2022-08-04T06:57:19;96941.94;;;22.59;91.31
12178;BME280;6152;48.728;9.256;2022-08-04T07:02:26;96947.38;;;22.82;88.81
12178;BME280;6152;48.728;9.256;2022-08-04T07:04:53;96940.66;;;22.94;87.17
12178;BME280;6152;48.728;9.256;2022-08-04T07:07:20;96948.59;;;23.02;86.12
12178;BME280;6152;48.728;9.256;2022-08-04T07:09:48;96945.53;;;23.13;85.51
12178;BME280;6152;48.728;9.256;2022-08-04T07:12:16;96935.31;;;23.25;85.40
12178;BME280;6152;48.728;9.256;2022-08-04T07:14:47;96934.56;;;23.39;85.37
12178;BME280;6152;48.728;9.256;2022-08-04T07:17:14;96938.84;;;23.48;85.17
12178;BME280;6152;48.728;9.256;2022-08-04T07:19:41;96938.28;;;23.60;84.88
12178;BME280;6152;48.728;9.256;2022-08-04T07:22:09;96941.16;;;23.74;84.52
12178;BME280;6152;48.728;9.256;2022-08-04T07:24:37;96938.16;;;23.91;82.65
12178;BME280;6152;48.728;9.256;2022-08-04T07:27:05;96934.88;;;24.04;81.38
12178;BME280;6152;48.728;9.256;2022-08-04T07:29:35;96938.44;;;24.19;79.22
12178;BME280;6152;48.728;9.256;2022-08-04T07:32:05;96936.59;;;24.34;77.81
12178;BME280;6152;48.728;9.256;2022-08-04T07:34:32;96934.94;;;24.48;75.89
12178;BME280;6152;48.728;9.256;2022-08-04T07:36:59;96933.94;;;24.63;76.90
12178;BME280;6152;48.728;9.256;2022-08-04T07:39:27;96946.34;;;24.86;73.75
12178;BME280;6152;48.728;9.256;2022-08-04T07:41:55;96936.47;;;25.01;72.73
12178;BME280;6152;48.728;9.256;2022-08-04T07:44:21;96941.03;;;25.22;71.77
12178;BME280;6152;48.728;9.256;2022-08-04T07:46:48;96935.91;;;25.41;69.79
12178;BME280;6152;48.728;9.256;2022-08-04T07:49:14;96931.81;;;25.60;68.32
12178;BME280;6152;48.728;9.256;2022-08-04T07:51:40;96926.47;;;25.81;64.09
12178;BME280;6152;48.728;9.256;2022-08-04T07:54:07;96932.34;;;25.98;62.13
12178;BME280;6152;48.728;9.256;2022-08-04T07:56:37;96933.59;;;26.23;61.74
12178;BME280;6152;48.728;9.256;2022-08-04T07:59:04;96936.84;;;26.53;60.35
12178;BME280;6152;48.728;9.256;2022-08-04T08:01:33;96938.84;;;26.79;57.95
12178;BME280;6152;48.728;9.256;2022-08-04T08:04:00;96936.94;;;27.07;56.38
12178;BME280;6152;48.728;9.256;2022-08-04T08:06:27;96936.63;;;27.36;54.59
12178;BME280;6152;48.728;9.256;2022-08-04T08:08:54;96923.31;;;27.69;53.37
12178;BME280;6152;48.728;9.256;2022-08-04T08:11:21;96919.22;;;28.06;51.06
12178;BME280;6152;48.728;9.256;2022-08-04T08:13:47;96927.41;;;28.50;50.03
12178;BME280;6152;48.728;9.256;2022-08-04T08:16:14;96914.06;;;29.01;49.33
12178;BME280;6152;48.728;9.256;2022-08-04T08:18:41;96917.47;;;29.59;48.16
12178;BME280;6152;48.728;9.256;2022-08-04T08:21:07;96909.63;;;29.96;44.97
12178;BME280;6152;48.728;9.256;2022-08-04T08:23:34;96922.28;;;30.75;44.32
12178;BME280;6152;48.728;9.256;2022-08-04T08:26:01;96908.50;;;31.49;41.41
12178;BME280;6152;48.728;9.256;2022-08-04T08:28:27;96919.78;;;31.99;38.96
12178;BME280;6152;48.728;9.256;2022-08-04T08:30:53;96907.81;;;32.88;39.42
12178;BME280;6152;48.728;9.256;2022-08-04T08:33:20;96904.81;;;33.86;37.31
12178;BME280;6152;48.728;9.256;2022-08-04T08:35:52;96917.50;;;34.90;34.67
12178;BME280;6152;48.728;9.256;2022-08-04T08:38:46;96905.94;;;35.97;33.18
12178;BME280;6152;48.728;9.256;2022-08-04T08:57:48;96891.13;;;41.56;24.87
12178;BME280;6152;48.728;9.256;2022-08-04T09:11:08;96898.31;;;44.39;21.58
12178;BME280;6152;48.728;9.256;2022-08-04T09:13:45;96897.81;;;44.14;21.63
12178;BME280;6152;48.728;9.256;2022-08-04T09:19:33;96890.06;;;46.08;19.54
12178;BME280;6152;48.728;9.256;2022-08-04T09:30:00;96890.28;;;46.41;19.02
12178;BME280;6152;48.728;9.256;2022-08-04T09:51:42;96875.41;;;49.27;16.55
12178;BME280;6152;48.728;9.256;2022-08-04T09:54:26;96873.59;;;50.27;15.62
12178;BME280;6152;48.728;9.256;2022-08-04T10:00:01;96870.47;;;48.72;15.83
12178;BME280;6152;48.728;9.256;2022-08-04T10:02:35;96864.47;;;48.82;15.88
12178;BME280;6152;48.728;9.256;2022-08-04T10:05:08;96858.38;;;49.01;15.10
12178;BME280;6152;48.728;9.256;2022-08-04T10:08:17;96853.63;;;47.87;16.01
12178;BME280;6152;48.728;9.256;2022-08-04T10:11:08;96858.84;;;47.68;16.45
12178;BME280;6152;48.728;9.256;2022-08-04T10:14:09;96848.50;;;48.55;16.21
12178;BME280;6152;48.728;9.256;2022-08-04T10:19:43;96849.69;;;49.39;15.20
12178;BME280;6152;48.728;9.256;2022-08-04T10:22:31;96847.97;;;49.62;15.07
12178;BME280;6152;48.728;9.256;2022-08-04T10:25:16;96841.56;;;49.58;15.21
12178;BME280;6152;48.728;9.256;2022-08-04T10:27:53;96843.59;;;50.91;15.44
12178;BME280;6152;48.728;9.256;2022-08-04T10:30:20;96831.75;;;48.96;14.83
12178;BME280;6152;48.728;9.256;2022-08-04T10:33:04;96831.38;;;50.18;14.71
12178;BME280;6152;48.728;9.256;2022-08-04T10:35:53;96834.13;;;50.92;13.74
12178;BME280;6152;48.728;9.256;2022-08-04T10:46:38;96826.22;;;52.03;11.93
12178;BME280;6152;48.728;9.256;2022-08-04T10:49:13;96824.50;;;52.85;12.17
12178;BME280;6152;48.728;9.256;2022-08-04T10:54:52;96827.72;;;52.19;11.15
12178;BME280;6152;48.728;9.256;2022-08-04T10:57:29;96820.28;;;52.95;10.45
12178;BME280;6152;48.728;9.256;2022-08-04T11:00:05;96830.72;;;52.75;11.07
12178;BME280;6152;48.728;9.256;2022-08-04T11:02:45;96820.84;;;49.80;12.09
12178;BME280;6152;48.728;9.256;2022-08-04T11:05:41;96817.47;;;50.30;12.15
12178;BME280;6152;48.728;9.256;2022-08-04T11:08:30;96823.50;;;51.87;11.60
12178;BME280;6152;48.728;9.256;2022-08-04T11:11:14;96817.75;;;52.86;11.76
12178;BME280;6152;48.728;9.256;2022-08-04T11:14:06;96818.47;;;52.57;11.45
12178;BME280;6152;48.728;9.256;2022-08-04T11:16:41;96815.19;;;53.01;11.42
12178;BME280;6152;48.728;9.256;2022-08-04T11:25:16;96812.50;;;50.51;11.81
12178;BME280;6152;48.728;9.256;2022-08-04T11:30:37;96821.53;;;52.07;10.74
12178;BME280;6152;48.728;9.256;2022-08-04T11:39:07;96823.44;;;54.13;10.00
12178;BME280;6152;48.728;9.256;2022-08-04T11:41:59;96814.59;;;54.44;10.20
12178;BME280;6152;48.728;9.256;2022-08-04T11:44:42;96806.78;;;53.86;10.71
12178;BME280;6152;48.728;9.256;2022-08-04T11:50:38;96805.97;;;52.70;10.82
12178;BME280;6152;48.728;9.256;2022-08-04T11:53:09;96803.94;;;52.93;10.37
12178;BME280;6152;48.728;9.256;2022-08-04T11:55:36;96805.16;;;52.02;10.62
12178;BME280;6152;48.728;9.256;2022-08-04T11:58:04;96808.66;;;51.98;10.74
12178;BME280;6152;48.728;9.256;2022-08-04T12:00:31;96793.94;;;50.55;11.42
12178;BME280;6152;48.728;9.256;2022-08-04T12:05:35;96783.66;;;51.03;11.54
12178;BME280;6152;48.728;9.256;2022-08-04T12:11:20;96793.91;;;52.17;11.96
12178;BME280;6152;48.728;9.256;2022-08-04T12:17:04;96770.97;;;50.70;12.83
12178;BME280;6152;48.728;9.256;2022-08-04T12:19:43;96782.19;;;47.86;13.20
12178;BME280;6152;48.728;9.256;2022-08-04T12:22:31;96785.75;;;47.33;14.20
12178;BME280;6152;48.728;9.256;2022-08-04T12:25:13;96780.38;;;46.86;15.77
12178;BME280;6152;48.728;9.256;2022-08-04T12:27:53;96776.38;;;45.99;14.29
12178;BME280;6152;48.728;9.256;2022-08-04T12:30:20;96769.16;;;43.82;15.73
12178;BME280;6152;48.728;9.256;2022-08-04T12:33:14;96777.97;;;43.12;17.12
12178;BME280;6152;48.728;9.256;2022-08-04T12:35:58;96780.22;;;42.28;18.61
12178;BME280;6152;48.728;9.256;2022-08-04T12:38:30;96776.44;;;41.27;19.11
12178;BME280;6152;48.728;9.256;2022-08-04T12:40:59;96774.72;;;40.99;19.82
12178;BME280;6152;48.728;9.256;2022-08-04T12:43:38;96770.97;;;40.71;19.99
12178;BME280;6152;48.728;9.256;2022-08-04T12:46:25;96764.34;;;40.06;20.98
12178;BME280;6152;48.728;9.256;2022-08-04T12:49:00;96767.41;;;39.66;20.23
12178;BME280;6152;48.728;9.256;2022-08-04T12:51:27;96764.00;;;39.16;20.41
12178;BME280;6152;48.728;9.256;2022-08-04T12:53:54;96757.50;;;39.07;21.05
12178;BME280;6152;48.728;9.256;2022-08-04T12:56:26;96770.81;;;38.60;21.62
12178;BME280;6152;48.728;9.256;2022-08-04T12:59:04;96769.31;;;38.18;22.17
12178;BME280;6152;48.728;9.256;2022-08-04T13:01:31;96766.03;;;38.26;23.99
12178;BME280;6152;48.728;9.256;2022-08-04T13:04:14;96763.34;;;38.16;22.39
12178;BME280;6152;48.728;9.256;2022-08-04T13:06:41;96757.94;;;37.91;22.09
12178;BME280;6152;48.728;9.256;2022-08-04T13:09:15;96760.16;;;37.79;22.49
12178;BME280;6152;48.728;9.256;2022-08-04T13:11:58;96754.44;;;37.70;22.34
12178;BME280;6152;48.728;9.256;2022-08-04T13:14:32;96763.38;;;37.10;23.66
12178;BME280;6152;48.728;9.256;2022-08-04T13:16:59;96761.41;;;36.75;24.20
12178;BME280;6152;48.728;9.256;2022-08-04T13:19:27;96762.34;;;36.49;23.79
12178;BME280;6152;48.728;9.256;2022-08-04T13:21:54;96761.03;;;36.05;24.96
12178;BME280;6152;48.728;9.256;2022-08-04T13:24:23;96758.44;;;35.83;24.28
12178;BME280;6152;48.728;9.256;2022-08-04T13:26:54;96754.13;;;35.82;25.35
12178;BME280;6152;48.728;9.256;2022-08-04T13:29:24;96746.59;;;35.89;24.24
12178;BME280;6152;48.728;9.256;2022-08-04T13:31:52;96749.25;;;35.84;25.20
12178;BME280;6152;48.728;9.256;2022-08-04T13:34:19;96742.19;;;35.83;24.92
12178;BME280;6152;48.728;9.256;2022-08-04T13:36:46;96745.47;;;35.85;26.45
12178;BME280;6152;48.728;9.256;2022-08-04T13:39:22;96743.38;;;35.97;27.71
12178;BME280;6152;48.728;9.256;2022-08-04T13:41:52;96729.31;;;36.05;26.17
12178;BME280;6152;48.728;9.256;2022-08-04T13:44:30;96735.31;;;36.07;25.69
12178;BME280;6152;48.728;9.256;2022-08-04T13:46:58;96734.28;;;36.13;25.86
12178;BME280;6152;48.728;9.256;2022-08-04T13:49:25;96735.31;;;36.07;25.70
12178;BME280;6152;48.728;9.256;2022-08-04T13:52:02;96739.59;;;35.98;25.38
12178;BME280;6152;48.728;9.256;2022-08-04T13:54:40;96731.94;;;35.90;25.24
12178;BME280;6152;48.728;9.256;2022-08-04T13:57:18;96729.75;;;35.82;25.43
12178;BME280;6152;48.728;9.256;2022-08-04T13:59:56;96738.94;;;35.81;25.09
12178;BME280;6152;48.728;9.256;2022-08-04T14:02:43;96732.75;;;35.90;25.64
12178;BME280;6152;48.728;9.256;2022-08-04T14:07:46;96724.34;;;35.87;25.60
12178;BME280;6152;48.728;9.256;2022-08-04T14:10:15;96712.50;;;36.03;26.12
12178;BME280;6152;48.728;9.256;2022-08-04T14:12:50;96718.84;;;36.19;25.78
12178;BME280;6152;48.728;9.256;2022-08-04T14:15:41;96720.53;;;36.30;24.80
12178;BME280;6152;48.728;9.256;2022-08-04T14:18:21;96715.38;;;36.38;25.51
12178;BME280;6152;48.728;9.256;2022-08-04T14:21:08;96723.00;;;36.41;24.91
12178;BME280;6152;48.728;9.256;2022-08-04T14:23:48;96708.94;;;36.50;24.58
12178;BME280;6152;48.728;9.256;2022-08-04T14:26:32;96708.94;;;36.50;25.75
12178;BME280;6152;48.728;9.256;2022-08-04T14:29:10;96711.31;;;36.41;25.10
12178;BME280;6152;48.728;9.256;2022-08-04T14:31:36;96712.94;;;36.32;25.53
12178;BME280;6152;48.728;9.256;2022-08-04T14:34:02;96707.47;;;36.22;25.77
12178;BME280;6152;48.728;9.256;2022-08-04T14:36:38;96706.13;;;36.24;25.81
12178;BME280;6152;48.728;9.256;2022-08-04T14:39:05;96710.50;;;36.30;25.60
12178;BME280;6152;48.728;9.256;2022-08-04T14:41:47;96704.75;;;36.22;24.63
12178;BME280;6152;48.728;9.256;2022-08-04T14:44:14;96696.91;;;36.20;25.30
12178;BME280;6152;48.728;9.256;2022-08-04T14:46:58;96701.16;;;36.06;25.96
12178;BME280;6152;48.728;9.256;2022-08-04T14:49:24;96706.00;;;36.04;25.29
12178;BME280;6152;48.728;9.256;2022-08-04T14:54:30;96696.06;;;36.15;25.49
12178;BME280;6152;48.728;9.256;2022-08-04T14:57:00;96696.91;;;36.20;25.84
12178;BME280;6152;48.728;9.256;2022-08-04T14:59:39;96697.72;;;36.31;25.12
12178;BME280;6152;48.728;9.256;2022-08-04T15:02:05;96700.47;;;36.36;24.72
12178;BME280;6152;48.728;9.256;2022-08-04T15:04:32;96698.03;;;36.29;25.65
12178;BME280;6152;48.728;9.256;2022-08-04T15:06:59;96695.03;;;36.31;25.93
12178;BME280;6152;48.728;9.256;2022-08-04T15:09:26;96693.88;;;36.12;25.07
12178;BME280;6152;48.728;9.256;2022-08-04T15:11:52;96685.97;;;36.05;25.90
12178;BME280;6152;48.728;9.256;2022-08-04T15:14:20;96689.16;;;35.97;24.70
12178;BME280;6152;48.728;9.256;2022-08-04T15:16:47;96691.88;;;35.97;26.05
12178;BME280;6152;48.728;9.256;2022-08-04T15:19:13;96692.69;;;35.92;25.45
12178;BME280;6152;48.728;9.256;2022-08-04T15:21:40;96689.69;;;35.89;25.71
12178;BME280;6152;48.728;9.256;2022-08-04T15:24:07;96691.81;;;35.82;27.02
12178;BME280;6152;48.728;9.256;2022-08-04T15:26:49;96694.19;;;35.73;25.38
12178;BME280;6152;48.728;9.256;2022-08-04T15:29:23;96685.75;;;35.65;26.21
12178;BME280;6152;48.728;9.256;2022-08-04T15:31:52;96688.97;;;35.62;26.69
12178;BME280;6152;48.728;9.256;2022-08-04T15:34:19;96687.66;;;35.64;27.50
12178;BME280;6152;48.728;9.256;2022-08-04T15:36:53;96691.72;;;35.67;26.28
12178;BME280;6152;48.728;9.256;2022-08-04T15:39:30;96687.66;;;35.69;25.93
12178;BME280;6152;48.728;9.256;2022-08-04T15:42:07;96691.19;;;35.65;25.04
12178;BME280;6152;48.728;9.256;2022-08-04T15:47:25;96687.38;;;35.66;25.51
12178;BME280;6152;48.728;9.256;2022-08-04T15:50:07;96685.47;;;35.61;25.87
12178;BME280;6152;48.728;9.256;2022-08-04T15:55:32;96679.25;;;35.66;25.83
12178;BME280;6152;48.728;9.256;2022-08-04T15:58:06;96683.59;;;35.67;26.48
12178;BME280;6152;48.728;9.256;2022-08-04T16:19:05;96661.44;;;35.33;26.45
12178;BME280;6152;48.728;9.256;2022-08-04T16:21:33;96661.06;;;35.24;26.11
12178;BME280;6152;48.728;9.256;2022-08-04T16:24:14;96667.50;;;35.13;26.39
12178;BME280;6152;48.728;9.256;2022-08-04T16:26:44;96661.47;;;35.06;25.96
12178;BME280;6152;48.728;9.256;2022-08-04T16:29:27;96663.22;;;34.90;26.43
12178;BME280;6152;48.728;9.256;2022-08-04T16:34:40;96663.81;;;34.66;27.22
12178;BME280;6152;48.728;9.256;2022-08-04T16:37:11;96656.69;;;34.60;27.78
12178;BME280;6152;48.728;9.256;2022-08-04T16:39:39;96659.28;;;34.49;27.36
12178;BME280;6152;48.728;9.256;2022-08-04T16:45:09;96650.56;;;34.42;28.64
12178;BME280;6152;48.728;9.256;2022-08-04T16:50:20;96647.81;;;34.37;27.00
12178;BME280;6152;48.728;9.256;2022-08-04T16:52:53;96648.31;;;34.34;27.44
12178;BME280;6152;48.728;9.256;2022-08-04T16:55:25;96643.41;;;34.31;27.14
12178;BME280;6152;48.728;9.256;2022-08-04T16:57:54;96645.56;;;34.29;27.58
12178;BME280;6152;48.728;9.256;2022-08-04T17:00:35;96642.28;;;34.27;27.97
12178;BME280;6152;48.728;9.256;2022-08-04T17:03:03;96641.19;;;34.23;27.17
12178;BME280;6152;48.728;9.256;2022-08-04T17:05:30;96642.19;;;34.17;27.01
12178;BME280;6152;48.728;9.256;2022-08-04T17:07:57;96641.88;;;34.14;27.75
12178;BME280;6152;48.728;9.256;2022-08-04T17:10:39;96630.72;;;34.10;27.49
12178;BME280;6152;48.728;9.256;2022-08-04T17:13:29;96638.78;;;34.05;28.00
12178;BME280;6152;48.728;9.256;2022-08-04T17:16:00;96638.72;;;34.00;29.29
12178;BME280;6152;48.728;9.256;2022-08-04T17:18:41;96643.78;;;33.96;30.47
12178;BME280;6152;48.728;9.256;2022-08-04T17:21:20;96644.56;;;33.92;30.16
12178;BME280;6152;48.728;9.256;2022-08-04T17:23:51;96637.22;;;33.87;31.05
12178;BME280;6152;48.728;9.256;2022-08-04T17:26:26;96637.41;;;33.81;29.97
12178;BME280;6152;48.728;9.256;2022-08-04T17:28:54;96635.94;;;33.73;31.22
12178;BME280;6152;48.728;9.256;2022-08-04T17:31:22;96638.28;;;33.65;31.21
12178;BME280;6152;48.728;9.256;2022-08-04T17:33:57;96630.03;;;33.55;31.44
12178;BME280;6152;48.728;9.256;2022-08-04T17:36:28;96625.88;;;33.47;31.18
12178;BME280;6152;48.728;9.256;2022-08-04T17:39:02;96627.09;;;33.39;32.32
12178;BME280;6152;48.728;9.256;2022-08-04T17:41:35;96628.94;;;33.34;32.00
12178;BME280;6152;48.728;9.256;2022-08-04T17:44:03;96626.38;;;33.27;31.35
12178;BME280;6152;48.728;9.256;2022-08-04T17:46:34;96631.16;;;33.20;31.97
12178;BME280;6152;48.728;9.256;2022-08-04T17:54:11;96631.28;;;32.97;33.24
12178;BME280;6152;48.728;9.256;2022-08-04T17:56:50;96641.41;;;32.90;33.88
12178;BME280;6152;48.728;9.256;2022-08-04T17:59:22;96637.50;;;32.81;33.92
12178;BME280;6152;48.728;9.256;2022-08-04T18:01:53;96638.97;;;32.72;33.99
12178;BME280;6152;48.728;9.256;2022-08-04T18:07:05;96634.81;;;32.52;35.11
12178;BME280;6152;48.728;9.256;2022-08-04T18:09:34;96643.28;;;32.44;35.23
12178;BME280;6152;48.728;9.256;2022-08-04T18:12:04;96635.84;;;32.35;35.70
12178;BME280;6152;48.728;9.256;2022-08-04T18:14:48;96640.47;;;32.23;36.47
12178;BME280;6152;48.728;9.256;2022-08-04T18:19:56;96639.25;;;32.02;36.88
12178;BME280;6152;48.728;9.256;2022-08-04T18:22:23;96646.50;;;31.90;37.41
12178;BME280;6152;48.728;9.256;2022-08-04T18:24:49;96646.56;;;31.78;37.68
12178;BME280;6152;48.728;9.256;2022-08-04T18:27:16;96648.22;;;31.68;37.74
12178;BME280;6152;48.728;9.256;2022-08-04T18:29:43;96650.91;;;31.56;37.94
12178;BME280;6152;48.728;9.256;2022-08-04T18:32:09;96648.19;;;31.44;38.36
12178;BME280;6152;48.728;9.256;2022-08-04T18:34:36;96642.84;;;31.33;38.71
12178;BME280;6152;48.728;9.256;2022-08-04T18:37:03;96649.03;;;31.22;38.61